sensor_id;sensor_type;location;lat;lon;timestamp;temperature;humidity
13928;DHT22;7036;50.834;4.718;2023-02-18T00:01:37;19.80;56.60
13928;DHT22;7036;50.834;4.718;2023-02-18T00:04:04;19.80;56.90
13928;DHT22;7036;50.834;4.718;2023-02-18T00:06:33;19.80;56.90
13928;DHT22;7036;50.834;4.718;2023-02-18T00:09:01;19.80;56.90
13928;DHT22;7036;50.834;4.718;2023-02-18T00:11:29;19.70;56.70
13928;DHT22;7036;50.834;4.718;2023-02-18T00:13:57;19.70;56.90
13928;DHT22;7036;50.834;4.718;2023-02-18T00:16:24;19.80;56.90
13928;DHT22;7036;50.834;4.718;2023-02-18T00:18:55;19.70;56.90
13928;DHT22;7036;50.834;4.718;2023-02-18T00:21:21;19.70;56.80
13928;DHT22;7036;50.834;4.718;2023-02-18T00:23:48;19.70;56.70
13928;DHT22;7036;50.834;4.718;2023-02-18T00:26:17;19.70;56.90
13928;DHT22;7036;50.834;4.718;2023-02-18T00:28:45;19.70;56.90
13928;DHT22;7036;50.834;4.718;2023-02-18T00:31:12;19.70;56.80
13928;DHT22;7036;50.834;4.718;2023-02-18T00:33:40;19.70;56.90
13928;DHT22;7036;50.834;4.718;2023-02-18T00:36:09;19.70;56.90
13928;DHT22;7036;50.834;4.718;2023-02-18T00:38:35;19.70;56.90
13928;DHT22;7036;50.834;4.718;2023-02-18T00:41:04;19.70;56.90
13928;DHT22;7036;50.834;4.718;2023-02-18T00:43:31;19.70;56.80
13928;DHT22;7036;50.834;4.718;2023-02-18T00:45:59;19.60;56.90
13928;DHT22;7036;50.834;4.718;2023-02-18T00:48:28;19.60;56.90
13928;DHT22;7036;50.834;4.718;2023-02-18T00:50:54;19.60;56.80
13928;DHT22;7036;50.834;4.718;2023-02-18T00:53:22;19.60;56.90
13928;DHT22;7036;50.834;4.718;2023-02-18T00:55:50;19.60;56.90
13928;DHT22;7036;50.834;4.718;2023-02-18T00:58:18;19.60;56.90
13928;DHT22;7036;50.834;4.718;2023-02-18T01:00:45;19.60;56.80
13928;DHT22;7036;50.834;4.718;2023-02-18T01:03:14;19.60;56.80
13928;DHT22;7036;50.834;4.718;2023-02-18T01:05:41;19.60;56.90
13928;DHT22;7036;50.834;4.718;2023-02-18T01:08:09;19.60;56.50
13928;DHT22;7036;50.834;4.718;2023-02-18T01:10:41;19.60;56.90
13928;DHT22;7036;50.834;4.718;2023-02-18T01:13:04;19.60;56.80
13928;DHT22;7036;50.834;4.718;2023-02-18T01:15:32;19.60;56.80
13928;DHT22;7036;50.834;4.718;2023-02-18T01:18:00;19.50;57.50
13928;DHT22;7036;50.834;4.718;2023-02-18T01:20:28;19.50;56.90
13928;DHT22;7036;50.834;4.718;2023-02-18T01:22:56;19.50;56.80
13928;DHT22;7036;50.834;4.718;2023-02-18T01:25:24;19.50;56.90
13928;DHT22;7036;50.834;4.718;2023-02-18T01:27:51;19.50;56.80
13928;DHT22;7036;50.834;4.718;2023-02-18T01:30:19;19.60;57.60
13928;DHT22;7036;50.834;4.718;2023-02-18T01:32:47;19.50;56.90
13928;DHT22;7036;50.834;4.718;2023-02-18T01:35:17;19.50;56.90
13928;DHT22;7036;50.834;4.718;2023-02-18T01:37:42;19.50;56.80
13928;DHT22;7036;50.834;4.718;2023-02-18T01:40:13;19.50;56.80
13928;DHT22;7036;50.834;4.718;2023-02-18T01:42:40;19.50;56.90
13928;DHT22;7036;50.834;4.718;2023-02-18T01:48:06;19.50;56.80
13928;DHT22;7036;50.834;4.718;2023-02-18T01:50:36;19.50;57.00
13928;DHT22;7036;50.834;4.718;2023-02-18T01:53:02;19.50;56.80
13928;DHT22;7036;50.834;4.718;2023-02-18T01:55:29;19.50;56.80
13928;DHT22;7036;50.834;4.718;2023-02-18T01:57:56;19.50;56.80
13928;DHT22;7036;50.834;4.718;2023-02-18T02:00:24;19.50;56.90
13928;DHT22;7036;50.834;4.718;2023-02-18T02:02:52;19.50;57.00
13928;DHT22;7036;50.834;4.718;2023-02-18T02:05:20;19.40;56.70
13928;DHT22;7036;50.834;4.718;2023-02-18T02:07:48;19.50;57.10
13928;DHT22;7036;50.834;4.718;2023-02-18T02:10:16;19.40;56.90
13928;DHT22;7036;50.834;4.718;2023-02-18T02:16:01;19.40;56.80
13928;DHT22;7036;50.834;4.718;2023-02-18T02:26:29;19.40;56.80
13928;DHT22;7036;50.834;4.718;2023-02-18T02:37:15;19.30;56.80
13928;DHT22;7036;50.834;4.718;2023-02-18T02:40:06;19.40;56.40
13928;DHT22;7036;50.834;4.718;2023-02-18T02:45:17;19.40;56.80
13928;DHT22;7036;50.834;4.718;2023-02-18T02:47:53;19.30;56.80
13928;DHT22;7036;50.834;4.718;2023-02-18T02:50:25;19.40;57.00
13928;DHT22;7036;50.834;4.718;2023-02-18T02:52:49;19.30;56.80
13928;DHT22;7036;50.834;4.718;2023-02-18T02:55:15;19.40;57.00
13928;DHT22;7036;50.834;4.718;2023-02-18T02:57:48;19.40;56.90
13928;DHT22;7036;50.834;4.718;2023-02-18T03:00:13;19.30;56.80
13928;DHT22;7036;50.834;4.718;2023-02-18T03:03:04;19.40;57.10
13928;DHT22;7036;50.834;4.718;2023-02-18T03:10:39;19.30;56.80
13928;DHT22;7036;50.834;4.718;2023-02-18T03:13:22;19.30;56.80
13928;DHT22;7036;50.834;4.718;2023-02-18T03:18:37;19.30;56.90
13928;DHT22;7036;50.834;4.718;2023-02-18T03:21:10;19.30;56.90
13928;DHT22;7036;50.834;4.718;2023-02-18T03:23:35;19.30;56.90
13928;DHT22;7036;50.834;4.718;2023-02-18T03:26:00;19.30;56.80
13928;DHT22;7036;50.834;4.718;2023-02-18T03:28:29;19.30;56.90
13928;DHT22;7036;50.834;4.718;2023-02-18T03:31:01;19.30;56.90
13928;DHT22;7036;50.834;4.718;2023-02-18T03:33:27;19.30;56.90
13928;DHT22;7036;50.834;4.718;2023-02-18T03:35:54;19.30;57.00
13928;DHT22;7036;50.834;4.718;2023-02-18T03:38:35;19.30;57.30
13928;DHT22;7036;50.834;4.718;2023-02-18T03:41:01;19.20;56.90
13928;DHT22;7036;50.834;4.718;2023-02-18T03:43:28;19.30;56.90
13928;DHT22;7036;50.834;4.718;2023-02-18T03:45:56;19.20;57.30
13928;DHT22;7036;50.834;4.718;2023-02-18T03:48:24;19.20;56.60
13928;DHT22;7036;50.834;4.718;2023-02-18T03:50:52;19.20;57.80
13928;DHT22;7036;50.834;4.718;2023-02-18T03:53:20;19.20;57.20
13928;DHT22;7036;50.834;4.718;2023-02-18T03:55:48;19.20;57.00
13928;DHT22;7036;50.834;4.718;2023-02-18T03:58:14;19.20;57.00
13928;DHT22;7036;50.834;4.718;2023-02-18T04:00:42;19.20;57.00
13928;DHT22;7036;50.834;4.718;2023-02-18T04:03:09;19.20;56.90
13928;DHT22;7036;50.834;4.718;2023-02-18T04:05:36;19.20;56.90
13928;DHT22;7036;50.834;4.718;2023-02-18T04:08:03;19.20;57.00
13928;DHT22;7036;50.834;4.718;2023-02-18T04:10:31;19.20;57.00
13928;DHT22;7036;50.834;4.718;2023-02-18T04:12:58;19.20;57.00
13928;DHT22;7036;50.834;4.718;2023-02-18T04:15:25;19.20;57.00
13928;DHT22;7036;50.834;4.718;2023-02-18T04:17:52;19.20;57.00
13928;DHT22;7036;50.834;4.718;2023-02-18T04:20:19;19.20;56.90
13928;DHT22;7036;50.834;4.718;2023-02-18T04:22:47;19.20;57.00
13928;DHT22;7036;50.834;4.718;2023-02-18T04:25:14;19.20;56.90
13928;DHT22;7036;50.834;4.718;2023-02-18T04:27:41;19.20;56.90
13928;DHT22;7036;50.834;4.718;2023-02-18T04:30:08;19.20;56.90
13928;DHT22;7036;50.834;4.718;2023-02-18T04:32:35;19.20;56.90
13928;DHT22;7036;50.834;4.718;2023-02-18T04:35:04;19.20;57.00
13928;DHT22;7036;50.834;4.718;2023-02-18T04:37:31;19.10;56.80
13928;DHT22;7036;50.834;4.718;2023-02-18T04:39:58;19.20;56.90
13928;DHT22;7036;50.834;4.718;2023-02-18T04:42:25;19.20;56.90
13928;DHT22;7036;50.834;4.718;2023-02-18T04:44:52;19.10;56.90
13928;DHT22;7036;50.834;4.718;2023-02-18T04:47:20;19.10;57.00
13928;DHT22;7036;50.834;4.718;2023-02-18T04:49:47;19.10;56.90
13928;DHT22;7036;50.834;4.718;2023-02-18T04:52:15;19.10;56.90
13928;DHT22;7036;50.834;4.718;2023-02-18T04:54:42;19.10;57.00
13928;DHT22;7036;50.834;4.718;2023-02-18T04:57:11;19.10;56.50
13928;DHT22;7036;50.834;4.718;2023-02-18T04:59:38;19.10;57.00
13928;DHT22;7036;50.834;4.718;2023-02-18T05:02:06;19.10;56.90
13928;DHT22;7036;50.834;4.718;2023-02-18T05:04:34;19.10;57.00
13928;DHT22;7036;50.834;4.718;2023-02-18T05:07:01;19.10;57.00
13928;DHT22;7036;50.834;4.718;2023-02-18T05:09:29;19.10;56.50
13928;DHT22;7036;50.834;4.718;2023-02-18T05:11:57;19.10;56.90
13928;DHT22;7036;50.834;4.718;2023-02-18T05:14:25;19.10;57.30
13928;DHT22;7036;50.834;4.718;2023-02-18T05:16:51;19.00;56.80
13928;DHT22;7036;50.834;4.718;2023-02-18T05:19:19;19.10;56.90
13928;DHT22;7036;50.834;4.718;2023-02-18T05:21:47;19.10;57.00
13928;DHT22;7036;50.834;4.718;2023-02-18T05:24:15;19.10;56.50
13928;DHT22;7036;50.834;4.718;2023-02-18T05:26:43;19.00;56.90
13928;DHT22;7036;50.834;4.718;2023-02-18T05:29:10;19.00;57.60
13928;DHT22;7036;50.834;4.718;2023-02-18T05:31:38;19.00;56.80
13928;DHT22;7036;50.834;4.718;2023-02-18T05:34:06;19.00;57.00
13928;DHT22;7036;50.834;4.718;2023-02-18T05:36:34;19.00;56.90
13928;DHT22;7036;50.834;4.718;2023-02-18T05:39:02;19.00;57.00
13928;DHT22;7036;50.834;4.718;2023-02-18T05:41:29;19.00;56.80
13928;DHT22;7036;50.834;4.718;2023-02-18T05:43:57;19.00;56.90
13928;DHT22;7036;50.834;4.718;2023-02-18T05:46:42;19.00;56.80
13928;DHT22;7036;50.834;4.718;2023-02-18T05:49:10;19.00;57.00
13928;DHT22;7036;50.834;4.718;2023-02-18T05:51:37;19.00;57.00
13928;DHT22;7036;50.834;4.718;2023-02-18T05:54:05;19.00;57.00
13928;DHT22;7036;50.834;4.718;2023-02-18T05:56:33;19.00;56.80
13928;DHT22;7036;50.834;4.718;2023-02-18T05:59:01;19.00;57.00
13928;DHT22;7036;50.834;4.718;2023-02-18T06:01:29;19.00;56.90
13928;DHT22;7036;50.834;4.718;2023-02-18T06:03:57;19.00;57.00
13928;DHT22;7036;50.834;4.718;2023-02-18T06:06:24;19.00;56.90
13928;DHT22;7036;50.834;4.718;2023-02-18T06:08:52;19.00;56.80
13928;DHT22;7036;50.834;4.718;2023-02-18T06:11:19;19.00;56.90
13928;DHT22;7036;50.834;4.718;2023-02-18T06:13:47;19.00;57.00
13928;DHT22;7036;50.834;4.718;2023-02-18T06:16:15;19.00;57.00
13928;DHT22;7036;50.834;4.718;2023-02-18T06:18:43;19.00;56.90
13928;DHT22;7036;50.834;4.718;2023-02-18T06:21:10;19.00;56.80
13928;DHT22;7036;50.834;4.718;2023-02-18T06:23:37;19.00;56.80
13928;DHT22;7036;50.834;4.718;2023-02-18T06:26:05;19.10;56.80
13928;DHT22;7036;50.834;4.718;2023-02-18T06:28:32;19.00;56.70
13928;DHT22;7036;50.834;4.718;2023-02-18T06:31:00;19.10;55.90
13928;DHT22;7036;50.834;4.718;2023-02-18T06:33:28;19.10;56.60
13928;DHT22;7036;50.834;4.718;2023-02-18T06:35:59;19.10;56.60
13928;DHT22;7036;50.834;4.718;2023-02-18T06:38:23;19.10;56.50
13928;DHT22;7036;50.834;4.718;2023-02-18T06:40:52;19.10;56.50
13928;DHT22;7036;50.834;4.718;2023-02-18T06:43:18;19.10;56.40
13928;DHT22;7036;50.834;4.718;2023-02-18T06:45:46;19.10;56.40
13928;DHT22;7036;50.834;4.718;2023-02-18T06:48:13;19.10;55.80
13928;DHT22;7036;50.834;4.718;2023-02-18T06:50:41;19.10;56.50
13928;DHT22;7036;50.834;4.718;2023-02-18T06:53:08;19.10;56.40
13928;DHT22;7036;50.834;4.718;2023-02-18T06:55:35;19.10;56.40
13928;DHT22;7036;50.834;4.718;2023-02-18T06:58:02;19.10;56.30
13928;DHT22;7036;50.834;4.718;2023-02-18T07:00:30;19.10;56.50
13928;DHT22;7036;50.834;4.718;2023-02-18T07:02:58;19.10;56.00
13928;DHT22;7036;50.834;4.718;2023-02-18T07:05:25;19.10;56.60
13928;DHT22;7036;50.834;4.718;2023-02-18T07:07:53;19.10;56.60
13928;DHT22;7036;50.834;4.718;2023-02-18T07:10:22;19.10;56.80
13928;DHT22;7036;50.834;4.718;2023-02-18T07:12:49;19.10;56.70
13928;DHT22;7036;50.834;4.718;2023-02-18T07:15:16;19.10;56.60
13928;DHT22;7036;50.834;4.718;2023-02-18T07:17:44;19.10;56.70
13928;DHT22;7036;50.834;4.718;2023-02-18T07:20:11;19.10;56.60
13928;DHT22;7036;50.834;4.718;2023-02-18T07:22:39;19.10;55.90
13928;DHT22;7036;50.834;4.718;2023-02-18T07:25:06;19.10;56.50
13928;DHT22;7036;50.834;4.718;2023-02-18T07:27:34;19.10;56.80
13928;DHT22;7036;50.834;4.718;2023-02-18T07:30:02;19.10;56.60
13928;DHT22;7036;50.834;4.718;2023-02-18T07:32:30;19.10;56.60
13928;DHT22;7036;50.834;4.718;2023-02-18T07:34:58;19.10;56.50
13928;DHT22;7036;50.834;4.718;2023-02-18T07:37:26;19.10;56.50
13928;DHT22;7036;50.834;4.718;2023-02-18T07:39:53;19.10;56.40
13928;DHT22;7036;50.834;4.718;2023-02-18T07:42:20;19.10;56.40
13928;DHT22;7036;50.834;4.718;2023-02-18T07:44:47;19.00;56.50
13928;DHT22;7036;50.834;4.718;2023-02-18T07:47:16;19.00;56.60
13928;DHT22;7036;50.834;4.718;2023-02-18T07:49:44;19.10;56.60
13928;DHT22;7036;50.834;4.718;2023-02-18T07:52:12;19.10;56.70
13928;DHT22;7036;50.834;4.718;2023-02-18T07:54:45;19.10;56.60
13928;DHT22;7036;50.834;4.718;2023-02-18T07:57:12;19.10;56.50
13928;DHT22;7036;50.834;4.718;2023-02-18T07:59:39;19.20;56.60
13928;DHT22;7036;50.834;4.718;2023-02-18T08:02:11;19.30;56.90
13928;DHT22;7036;50.834;4.718;2023-02-18T08:04:35;19.30;56.80
13928;DHT22;7036;50.834;4.718;2023-02-18T08:07:03;19.40;56.90
13928;DHT22;7036;50.834;4.718;2023-02-18T08:09:31;19.40;56.80
13928;DHT22;7036;50.834;4.718;2023-02-18T08:11:59;19.40;56.60
13928;DHT22;7036;50.834;4.718;2023-02-18T08:14:27;19.40;56.60
13928;DHT22;7036;50.834;4.718;2023-02-18T08:16:55;19.50;56.70
13928;DHT22;7036;50.834;4.718;2023-02-18T08:19:23;19.50;56.50
13928;DHT22;7036;50.834;4.718;2023-02-18T08:21:50;19.50;56.40
13928;DHT22;7036;50.834;4.718;2023-02-18T08:24:18;19.50;56.40
13928;DHT22;7036;50.834;4.718;2023-02-18T08:26:45;19.60;56.30
13928;DHT22;7036;50.834;4.718;2023-02-18T08:29:13;19.70;56.40
13928;DHT22;7036;50.834;4.718;2023-02-18T08:31:40;19.70;56.30
13928;DHT22;7036;50.834;4.718;2023-02-18T08:34:09;19.80;56.20
13928;DHT22;7036;50.834;4.718;2023-02-18T08:36:36;19.80;56.10
13928;DHT22;7036;50.834;4.718;2023-02-18T08:39:03;19.80;56.00
13928;DHT22;7036;50.834;4.718;2023-02-18T08:41:31;19.90;56.00
13928;DHT22;7036;50.834;4.718;2023-02-18T08:43:59;19.90;56.00
13928;DHT22;7036;50.834;4.718;2023-02-18T08:46:26;19.90;55.80
13928;DHT22;7036;50.834;4.718;2023-02-18T08:48:53;19.90;55.70
13928;DHT22;7036;50.834;4.718;2023-02-18T08:51:21;20.00;55.70
13928;DHT22;7036;50.834;4.718;2023-02-18T08:53:49;20.00;55.60
13928;DHT22;7036;50.834;4.718;2023-02-18T08:56:17;20.00;55.50
13928;DHT22;7036;50.834;4.718;2023-02-18T08:58:45;20.00;55.40
13928;DHT22;7036;50.834;4.718;2023-02-18T09:01:13;20.00;55.30
13928;DHT22;7036;50.834;4.718;2023-02-18T09:03:41;20.00;55.20
13928;DHT22;7036;50.834;4.718;2023-02-18T09:06:09;20.00;55.20
13928;DHT22;7036;50.834;4.718;2023-02-18T09:08:37;20.00;55.10
13928;DHT22;7036;50.834;4.718;2023-02-18T09:11:05;20.10;55.00
13928;DHT22;7036;50.834;4.718;2023-02-18T09:13:33;20.10;54.90
13928;DHT22;7036;50.834;4.718;2023-02-18T09:16:02;20.10;54.90
13928;DHT22;7036;50.834;4.718;2023-02-18T09:18:29;20.10;54.90
13928;DHT22;7036;50.834;4.718;2023-02-18T09:20:58;20.10;54.80
13928;DHT22;7036;50.834;4.718;2023-02-18T09:23:26;20.10;55.50
13928;DHT22;7036;50.834;4.718;2023-02-18T09:25:52;20.10;54.60
13928;DHT22;7036;50.834;4.718;2023-02-18T09:28:20;20.10;54.60
13928;DHT22;7036;50.834;4.718;2023-02-18T09:30:48;20.10;54.90
13928;DHT22;7036;50.834;4.718;2023-02-18T09:33:16;20.10;54.90
13928;DHT22;7036;50.834;4.718;2023-02-18T09:35:44;20.10;54.80
13928;DHT22;7036;50.834;4.718;2023-02-18T09:38:12;20.10;54.90
13928;DHT22;7036;50.834;4.718;2023-02-18T09:40:43;20.10;54.70
13928;DHT22;7036;50.834;4.718;2023-02-18T09:43:05;20.20;54.70
13928;DHT22;7036;50.834;4.718;2023-02-18T09:45:33;20.10;53.90
13928;DHT22;7036;50.834;4.718;2023-02-18T09:48:01;20.00;54.50
13928;DHT22;7036;50.834;4.718;2023-02-18T09:50:30;20.00;54.40
13928;DHT22;7036;50.834;4.718;2023-02-18T09:52:57;20.10;54.50
13928;DHT22;7036;50.834;4.718;2023-02-18T09:55:32;20.10;54.70
13928;DHT22;7036;50.834;4.718;2023-02-18T09:57:58;20.10;54.70
13928;DHT22;7036;50.834;4.718;2023-02-18T10:00:36;20.10;54.60
13928;DHT22;7036;50.834;4.718;2023-02-18T10:03:10;20.20;54.30
13928;DHT22;7036;50.834;4.718;2023-02-18T10:05:33;20.20;54.20
13928;DHT22;7036;50.834;4.718;2023-02-18T10:08:05;20.20;54.60
13928;DHT22;7036;50.834;4.718;2023-02-18T10:10:38;20.20;54.50
13928;DHT22;7036;50.834;4.718;2023-02-18T10:13:06;20.30;55.00
13928;DHT22;7036;50.834;4.718;2023-02-18T10:15:31;20.30;54.80
13928;DHT22;7036;50.834;4.718;2023-02-18T10:17:58;20.30;54.80
13928;DHT22;7036;50.834;4.718;2023-02-18T10:20:28;20.30;55.00
13928;DHT22;7036;50.834;4.718;2023-02-18T10:22:55;20.30;55.00
13928;DHT22;7036;50.834;4.718;2023-02-18T10:25:22;20.30;55.00
13928;DHT22;7036;50.834;4.718;2023-02-18T10:27:50;20.30;54.90
13928;DHT22;7036;50.834;4.718;2023-02-18T10:30:29;20.30;54.90
13928;DHT22;7036;50.834;4.718;2023-02-18T10:33:31;20.30;54.80
13928;DHT22;7036;50.834;4.718;2023-02-18T10:38:08;20.30;54.60
13928;DHT22;7036;50.834;4.718;2023-02-18T10:40:41;20.30;54.50
13928;DHT22;7036;50.834;4.718;2023-02-18T10:43:03;20.30;54.50
13928;DHT22;7036;50.834;4.718;2023-02-18T10:46:01;20.30;54.60
13928;DHT22;7036;50.834;4.718;2023-02-18T10:51:07;20.30;54.40
13928;DHT22;7036;50.834;4.718;2023-02-18T10:53:34;20.30;54.40
13928;DHT22;7036;50.834;4.718;2023-02-18T10:55:59;20.30;54.30
13928;DHT22;7036;50.834;4.718;2023-02-18T10:58:46;20.40;54.50
13928;DHT22;7036;50.834;4.718;2023-02-18T11:01:13;20.40;54.40
13928;DHT22;7036;50.834;4.718;2023-02-18T11:03:41;20.40;54.40
13928;DHT22;7036;50.834;4.718;2023-02-18T11:06:21;20.40;54.30
13928;DHT22;7036;50.834;4.718;2023-02-18T11:08:46;20.40;54.20
13928;DHT22;7036;50.834;4.718;2023-02-18T11:11:29;20.40;54.30
13928;DHT22;7036;50.834;4.718;2023-02-18T11:13:57;20.40;54.30
13928;DHT22;7036;50.834;4.718;2023-02-18T11:16:23;20.40;54.30
13928;DHT22;7036;50.834;4.718;2023-02-18T11:18:51;20.40;54.50
13928;DHT22;7036;50.834;4.718;2023-02-18T11:23:55;20.40;54.40
13928;DHT22;7036;50.834;4.718;2023-02-18T11:26:32;20.40;54.40
13928;DHT22;7036;50.834;4.718;2023-02-18T11:29:20;20.40;54.30
13928;DHT22;7036;50.834;4.718;2023-02-18T11:31:46;20.40;54.30
13928;DHT22;7036;50.834;4.718;2023-02-18T11:34:14;20.40;54.20
13928;DHT22;7036;50.834;4.718;2023-02-18T11:36:41;20.40;54.10
13928;DHT22;7036;50.834;4.718;2023-02-18T11:39:25;20.40;54.10
13928;DHT22;7036;50.834;4.718;2023-02-18T11:41:57;20.40;53.90
13928;DHT22;7036;50.834;4.718;2023-02-18T11:49:38;20.40;53.80
13928;DHT22;7036;50.834;4.718;2023-02-18T11:57:26;20.40;53.70
13928;DHT22;7036;50.834;4.718;2023-02-18T11:59:54;20.40;53.80
13928;DHT22;7036;50.834;4.718;2023-02-18T12:02:35;20.30;53.60
13928;DHT22;7036;50.834;4.718;2023-02-18T12:05:02;20.30;53.50
13928;DHT22;7036;50.834;4.718;2023-02-18T12:07:46;20.30;53.70
13928;DHT22;7036;50.834;4.718;2023-02-18T12:10:33;20.40;53.80
13928;DHT22;7036;50.834;4.718;2023-02-18T12:21:35;20.50;53.70
13928;DHT22;7036;50.834;4.718;2023-02-18T12:32:44;20.60;54.50
13928;DHT22;7036;50.834;4.718;2023-02-18T12:40:39;20.60;54.50
13928;DHT22;7036;50.834;4.718;2023-02-18T12:43:33;20.60;54.50
13928;DHT22;7036;50.834;4.718;2023-02-18T12:46:16;20.60;54.60
13928;DHT22;7036;50.834;4.718;2023-02-18T12:51:56;20.60;54.80
13928;DHT22;7036;50.834;4.718;2023-02-18T12:57:13;20.60;54.80
13928;DHT22;7036;50.834;4.718;2023-02-18T13:02:41;20.70;55.70
13928;DHT22;7036;50.834;4.718;2023-02-18T13:10:43;20.80;56.40
13928;DHT22;7036;50.834;4.718;2023-02-18T13:13:24;20.80;56.10
13928;DHT22;7036;50.834;4.718;2023-02-18T13:15:58;20.80;56.40
13928;DHT22;7036;50.834;4.718;2023-02-18T13:21:06;20.80;56.50
13928;DHT22;7036;50.834;4.718;2023-02-18T13:23:36;20.80;56.60
13928;DHT22;7036;50.834;4.718;2023-02-18T13:26:02;20.90;56.80
13928;DHT22;7036;50.834;4.718;2023-02-18T13:28:48;20.80;56.60
13928;DHT22;7036;50.834;4.718;2023-02-18T13:36:32;20.80;56.60
13928;DHT22;7036;50.834;4.718;2023-02-18T13:39:07;20.80;56.60
13928;DHT22;7036;50.834;4.718;2023-02-18T13:41:25;20.80;56.50
13928;DHT22;7036;50.834;4.718;2023-02-18T13:43:52;20.80;56.60
13928;DHT22;7036;50.834;4.718;2023-02-18T13:46:23;20.80;55.90
13928;DHT22;7036;50.834;4.718;2023-02-18T13:49:05;20.80;56.40
13928;DHT22;7036;50.834;4.718;2023-02-18T13:51:32;20.70;56.40
13928;DHT22;7036;50.834;4.718;2023-02-18T13:54:02;20.70;56.40
13928;DHT22;7036;50.834;4.718;2023-02-18T13:56:27;20.70;56.60
13928;DHT22;7036;50.834;4.718;2023-02-18T13:58:58;20.70;56.60
13928;DHT22;7036;50.834;4.718;2023-02-18T14:01:39;20.70;56.60
13928;DHT22;7036;50.834;4.718;2023-02-18T14:04:32;20.70;56.70
13928;DHT22;7036;50.834;4.718;2023-02-18T14:06:34;20.70;56.60
13928;DHT22;7036;50.834;4.718;2023-02-18T14:09:02;20.70;56.70
13928;DHT22;7036;50.834;4.718;2023-02-18T14:11:56;20.80;57.00
13928;DHT22;7036;50.834;4.718;2023-02-18T14:22:27;20.60;56.60
13928;DHT22;7036;50.834;4.718;2023-02-18T14:27:32;20.60;56.50
13928;DHT22;7036;50.834;4.718;2023-02-18T14:30:04;20.70;56.50
13928;DHT22;7036;50.834;4.718;2023-02-18T14:32:32;20.70;56.40
13928;DHT22;7036;50.834;4.718;2023-02-18T14:38:01;20.70;56.40
13928;DHT22;7036;50.834;4.718;2023-02-18T14:43:05;20.70;56.40
13928;DHT22;7036;50.834;4.718;2023-02-18T14:50:53;20.70;56.30
13928;DHT22;7036;50.834;4.718;2023-02-18T14:53:21;20.70;56.40
13928;DHT22;7036;50.834;4.718;2023-02-18T14:55:49;20.80;56.40
13928;DHT22;7036;50.834;4.718;2023-02-18T14:58:32;20.80;56.20
13928;DHT22;7036;50.834;4.718;2023-02-18T15:00:57;20.80;56.30
13928;DHT22;7036;50.834;4.718;2023-02-18T15:03:25;20.80;56.30
13928;DHT22;7036;50.834;4.718;2023-02-18T15:05:52;20.80;56.40
13928;DHT22;7036;50.834;4.718;2023-02-18T15:08:23;20.80;56.40
13928;DHT22;7036;50.834;4.718;2023-02-18T15:11:02;20.80;56.40
13928;DHT22;7036;50.834;4.718;2023-02-18T15:13:35;20.80;56.40
13928;DHT22;7036;50.834;4.718;2023-02-18T15:16:06;20.90;56.80
13928;DHT22;7036;50.834;4.718;2023-02-18T15:18:35;20.90;56.70
13928;DHT22;7036;50.834;4.718;2023-02-18T15:21:02;20.90;56.60
13928;DHT22;7036;50.834;4.718;2023-02-18T15:23:29;20.90;56.60
13928;DHT22;7036;50.834;4.718;2023-02-18T15:25:58;20.90;56.80
13928;DHT22;7036;50.834;4.718;2023-02-18T15:28:29;20.80;56.90
13928;DHT22;7036;50.834;4.718;2023-02-18T15:30:52;20.80;56.90
13928;DHT22;7036;50.834;4.718;2023-02-18T15:33:19;20.80;56.80
13928;DHT22;7036;50.834;4.718;2023-02-18T15:35:47;20.80;56.80
13928;DHT22;7036;50.834;4.718;2023-02-18T15:38:20;20.80;56.80
13928;DHT22;7036;50.834;4.718;2023-02-18T15:40:49;20.80;56.80
13928;DHT22;7036;50.834;4.718;2023-02-18T15:43:15;20.70;56.70
13928;DHT22;7036;50.834;4.718;2023-02-18T15:45:42;20.70;56.80
13928;DHT22;7036;50.834;4.718;2023-02-18T15:48:30;20.70;56.80
13928;DHT22;7036;50.834;4.718;2023-02-18T15:50:56;20.70;56.60
13928;DHT22;7036;50.834;4.718;2023-02-18T15:53:23;20.70;56.60
13928;DHT22;7036;50.834;4.718;2023-02-18T15:55:51;20.70;56.70
13928;DHT22;7036;50.834;4.718;2023-02-18T15:58:26;20.70;56.70
13928;DHT22;7036;50.834;4.718;2023-02-18T16:00:51;20.70;56.60
13928;DHT22;7036;50.834;4.718;2023-02-18T16:03:27;20.70;56.60
13928;DHT22;7036;50.834;4.718;2023-02-18T16:08:39;20.70;56.60
13928;DHT22;7036;50.834;4.718;2023-02-18T16:11:10;20.70;56.40
13928;DHT22;7036;50.834;4.718;2023-02-18T16:13:37;20.80;56.40
13928;DHT22;7036;50.834;4.718;2023-02-18T16:16:04;20.70;56.20
13928;DHT22;7036;50.834;4.718;2023-02-18T16:18:38;20.70;56.30
13928;DHT22;7036;50.834;4.718;2023-02-18T16:21:06;20.70;55.60
13928;DHT22;7036;50.834;4.718;2023-02-18T16:23:54;20.70;56.10
13928;DHT22;7036;50.834;4.718;2023-02-18T16:29:15;20.70;56.10
13928;DHT22;7036;50.834;4.718;2023-02-18T16:31:41;20.70;56.10
13928;DHT22;7036;50.834;4.718;2023-02-18T16:34:08;20.70;56.20
13928;DHT22;7036;50.834;4.718;2023-02-18T16:36:35;20.70;56.10
13928;DHT22;7036;50.834;4.718;2023-02-18T16:39:03;20.70;56.10
13928;DHT22;7036;50.834;4.718;2023-02-18T16:41:31;20.70;56.10
13928;DHT22;7036;50.834;4.718;2023-02-18T16:43:59;20.70;56.10
13928;DHT22;7036;50.834;4.718;2023-02-18T16:46:27;20.70;56.00
13928;DHT22;7036;50.834;4.718;2023-02-18T16:48:54;20.70;55.90
13928;DHT22;7036;50.834;4.718;2023-02-18T16:51:29;20.70;55.90
13928;DHT22;7036;50.834;4.718;2023-02-18T16:53:54;20.70;55.80
13928;DHT22;7036;50.834;4.718;2023-02-18T16:56:23;20.70;55.80
13928;DHT22;7036;50.834;4.718;2023-02-18T16:58:50;20.70;55.70
13928;DHT22;7036;50.834;4.718;2023-02-18T17:01:22;20.70;55.70
13928;DHT22;7036;50.834;4.718;2023-02-18T17:03:49;20.70;55.80
13928;DHT22;7036;50.834;4.718;2023-02-18T17:06:15;20.70;55.70
13928;DHT22;7036;50.834;4.718;2023-02-18T17:08:43;20.70;55.60
13928;DHT22;7036;50.834;4.718;2023-02-18T17:11:21;20.70;55.60
13928;DHT22;7036;50.834;4.718;2023-02-18T17:13:44;20.70;55.50
13928;DHT22;7036;50.834;4.718;2023-02-18T17:16:12;20.70;55.60
13928;DHT22;7036;50.834;4.718;2023-02-18T17:18:39;20.70;55.50
13928;DHT22;7036;50.834;4.718;2023-02-18T17:21:10;20.70;55.60
13928;DHT22;7036;50.834;4.718;2023-02-18T17:23:36;20.70;55.60
13928;DHT22;7036;50.834;4.718;2023-02-18T17:26:04;20.70;55.60
13928;DHT22;7036;50.834;4.718;2023-02-18T17:28:30;20.70;55.60
13928;DHT22;7036;50.834;4.718;2023-02-18T17:30:57;20.70;55.70
13928;DHT22;7036;50.834;4.718;2023-02-18T17:33:25;20.70;55.60
13928;DHT22;7036;50.834;4.718;2023-02-18T17:35:52;20.80;55.70
13928;DHT22;7036;50.834;4.718;2023-02-18T17:38:19;20.70;55.70
13928;DHT22;7036;50.834;4.718;2023-02-18T17:40:47;20.80;55.70
13928;DHT22;7036;50.834;4.718;2023-02-18T17:43:15;20.80;56.20
13928;DHT22;7036;50.834;4.718;2023-02-18T17:45:48;20.80;56.10
13928;DHT22;7036;50.834;4.718;2023-02-18T17:48:14;20.80;56.10
13928;DHT22;7036;50.834;4.718;2023-02-18T17:50:42;20.90;56.20
13928;DHT22;7036;50.834;4.718;2023-02-18T17:53:12;20.90;56.10
13928;DHT22;7036;50.834;4.718;2023-02-18T17:55:41;20.90;56.30
13928;DHT22;7036;50.834;4.718;2023-02-18T17:58:08;20.90;56.20
13928;DHT22;7036;50.834;4.718;2023-02-18T18:00:36;21.00;56.10